Terminal Aerodrome Forecast
Issued by NWS Columbia, SC

Home | Current Version | Previous Version | Text Only | Print | Product List | Glossary On
Versions: 1 2 3 4 5 6 7 8 9 10 11 12 13 14 15 16 17 18 19 20 21 22 23 24 25 26 27 28 29 30 31 32 33
000
FTUS42 KCAE 281100
TAFCAE
TAF
KCAE 281121Z 2812/2912 06004KT P6SM BKN250
     FM281500 07008KT P6SM SCT060 BKN200
     FM290000 07004KT P6SM BKN100
     FM290800 06005KT P6SM -RA OVC035=

USA.gov is the U.S. government's official web portal to all federal, state and local government web resources and services.